Yuto, Argentina
Current Conditions -  °F | °C
As of 10:00 PM on Friday 19 Dec 2014 (Local Time) from SASJ Reporting Station
Broken Clouds Broken Clouds  
Wind Chill: 77°   Ceiling: 10000
Heat Index: 79°   Visibility: 6mi
Dew Point: 66°   Wind: 6mph
Humidity: 69%   Direction: 50°NE
Pressure: 29.71"   Gusts: NA
Location:  23.63°S, 64.47°W
Report Text: SASJ 200100Z 05005KT 9999 SCT035 BKN10025/19 Q1006
Loading
Personal Weather Stations






























Interactive Weather Map New forecast layout! Learn more

10-Day Weather Forecast

Advertisements
Track Severe Weather on mobile